createdAt,value
2018-12-16T00:00:23.332Z,31.57
2018-12-16T00:02:53.083Z,33.77
2018-12-16T00:05:23.366Z,33.40
2018-12-16T00:07:50.941Z,35.77
2018-12-16T00:10:18.494Z,37.83
2018-12-16T00:12:46.297Z,40.80
2018-12-16T00:15:14.364Z,36.23
2018-12-16T00:17:41.930Z,33.67
2018-12-16T00:20:09.662Z,32.70
2018-12-16T00:22:37.487Z,34.93
2018-12-16T00:25:06.513Z,35.57
2018-12-16T00:27:34.083Z,34.60
2018-12-16T00:30:01.786Z,39.53
2018-12-16T00:32:29.713Z,35.97
2018-12-16T00:34:57.234Z,36.13
2018-12-16T00:37:24.986Z,33.10
2018-12-16T00:39:52.531Z,31.60
2018-12-16T00:42:20.107Z,34.70
2018-12-16T00:44:47.617Z,32.60
2018-12-16T00:47:15.161Z,38.40
2018-12-16T00:49:42.761Z,31.73
2018-12-16T00:52:10.263Z,36.03
2018-12-16T00:54:38.044Z,34.07
2018-12-16T00:57:05.598Z,30.93
2018-12-16T00:59:33.249Z,37.17
2018-12-16T01:02:00.915Z,34.60
2018-12-16T01:04:28.812Z,34.73
2018-12-16T01:06:56.445Z,33.50
2018-12-16T01:09:24.107Z,31.00
2018-12-16T01:11:51.862Z,32.57
2018-12-16T01:14:19.588Z,34.70
2018-12-16T01:16:47.605Z,29.10
2018-12-16T01:19:15.284Z,33.80
2018-12-16T01:21:42.758Z,31.10
2018-12-16T01:24:10.299Z,36.23
2018-12-16T01:26:37.973Z,29.63
2018-12-16T01:29:05.562Z,28.60
2018-12-16T01:31:33.052Z,30.20
2018-12-16T01:34:00.648Z,31.60
2018-12-16T01:36:28.304Z,34.13
2018-12-16T01:38:55.855Z,29.23
2018-12-16T01:41:23.575Z,29.37
2018-12-16T01:43:51.226Z,32.53
2018-12-16T01:46:18.871Z,34.17
2018-12-16T01:48:46.370Z,29.43
2018-12-16T01:51:14.310Z,31.00
2018-12-16T01:53:42.329Z,34.90
2018-12-16T01:56:09.919Z,32.73
2018-12-16T01:58:37.679Z,29.67
2018-12-16T02:01:05.280Z,28.27
2018-12-16T02:03:33.077Z,30.30
2018-12-16T02:06:00.622Z,32.27
2018-12-16T02:08:28.156Z,27.70
2018-12-16T02:10:55.982Z,32.63
2018-12-16T02:13:23.605Z,37.30
2018-12-16T02:15:51.082Z,30.07
2018-12-16T02:18:18.751Z,28.50
2018-12-16T02:20:46.785Z,31.67
2018-12-16T02:23:14.387Z,29.93
2018-12-16T02:25:41.915Z,32.87
2018-12-16T02:28:09.641Z,33.07
2018-12-16T02:30:37.437Z,31.13
2018-12-16T02:33:05.070Z,28.63
2018-12-16T02:35:32.659Z,31.57
2018-12-16T02:38:00.277Z,29.73
2018-12-16T02:40:27.929Z,34.83
2018-12-16T02:42:55.701Z,28.77
2018-12-16T02:45:23.302Z,33.23
2018-12-16T02:47:51.537Z,29.97
2018-12-16T02:50:19.154Z,31.40
2018-12-16T02:52:47.858Z,33.07
2018-12-16T02:55:15.515Z,30.40
2018-12-16T02:57:43.060Z,30.60
2018-12-16T03:00:10.938Z,29.40
2018-12-16T03:02:40.390Z,33.67
2018-12-16T03:05:08.257Z,26.37
2018-12-16T03:07:35.805Z,29.90
2018-12-16T03:10:04.438Z,31.67
2018-12-16T03:12:32.232Z,29.30
2018-12-16T03:14:59.754Z,27.20
2018-12-16T03:17:27.300Z,29.33
2018-12-16T03:19:54.785Z,33.87
2018-12-16T03:22:22.354Z,27.30
2018-12-16T03:24:49.897Z,28.90
2018-12-16T03:27:17.507Z,29.00
2018-12-16T03:29:45.423Z,30.47
2018-12-16T03:32:12.979Z,28.47
2018-12-16T03:34:40.684Z,30.87
2018-12-16T03:37:08.420Z,27.93
2018-12-16T03:39:35.970Z,26.67
2018-12-16T03:42:05.827Z,29.07
2018-12-16T03:44:33.436Z,30.80
2018-12-16T03:47:00.988Z,29.97
2018-12-16T03:49:28.688Z,29.57
2018-12-16T03:51:56.344Z,29.73
2018-12-16T03:54:23.911Z,33.60
2018-12-16T03:56:51.764Z,35.97
2018-12-16T03:59:19.685Z,34.33
2018-12-16T04:01:53.220Z,34.13
2018-12-16T04:04:20.828Z,35.07
2018-12-16T04:06:48.414Z,38.07
2018-12-16T04:09:16.163Z,32.70
2018-12-16T04:11:43.753Z,35.30
2018-12-16T04:14:11.421Z,36.87
2018-12-16T04:16:40.961Z,37.30
2018-12-16T04:19:08.557Z,35.57
2018-12-16T04:21:36.362Z,37.17
2018-12-16T04:24:03.886Z,33.83
2018-12-16T04:26:31.507Z,41.97
2018-12-16T04:28:59.222Z,37.43
2018-12-16T04:31:27.051Z,40.87
2018-12-16T04:33:54.560Z,38.37
2018-12-16T04:36:22.438Z,39.70
2018-12-16T04:38:50.157Z,32.00
2018-12-16T04:41:17.852Z,36.40
2018-12-16T04:43:45.633Z,38.93
2018-12-16T04:46:13.178Z,32.50
2018-12-16T04:48:40.825Z,40.10
2018-12-16T04:51:08.439Z,40.17
2018-12-16T04:53:41.772Z,38.10
2018-12-16T04:56:09.342Z,37.30
2018-12-16T04:58:36.984Z,44.33
2018-12-16T05:01:04.695Z,41.97
2018-12-16T05:03:32.235Z,42.37
2018-12-16T05:05:59.783Z,40.10
2018-12-16T05:08:27.454Z,38.73
2018-12-16T05:10:55.131Z,43.00
2018-12-16T05:13:23.456Z,36.93
2018-12-16T05:15:51.034Z,38.17
2018-12-16T05:18:18.630Z,35.43
2018-12-16T05:20:46.171Z,38.27
2018-12-16T05:23:13.791Z,37.53
2018-12-16T05:25:41.278Z,38.33
2018-12-16T05:28:08.938Z,41.60
2018-12-16T05:30:36.515Z,42.63
2018-12-16T05:33:04.266Z,42.00
2018-12-16T05:35:31.813Z,38.27
2018-12-16T05:37:59.362Z,40.87
2018-12-16T05:40:26.910Z,42.13
2018-12-16T05:42:54.433Z,39.50
2018-12-16T05:45:22.175Z,48.93
2018-12-16T05:47:49.890Z,44.13
2018-12-16T05:50:17.654Z,42.57
2018-12-16T05:52:45.183Z,39.47
2018-12-16T05:55:12.738Z,35.10
2018-12-16T05:57:40.302Z,40.73
2018-12-16T06:00:08.268Z,42.97
2018-12-16T06:02:35.788Z,45.33
2018-12-16T06:05:03.779Z,47.33
2018-12-16T06:07:31.317Z,42.87
2018-12-16T06:09:58.966Z,41.90
2018-12-16T06:12:26.781Z,38.87
2018-12-16T06:14:54.340Z,36.17
2018-12-16T06:17:21.932Z,44.33
2018-12-16T06:19:49.433Z,37.67
2018-12-16T06:22:17.121Z,40.37
2018-12-16T06:24:44.855Z,43.27
2018-12-16T06:27:12.514Z,40.13
2018-12-16T06:29:41.366Z,39.53
2018-12-16T06:32:09.149Z,41.77
2018-12-16T06:34:36.659Z,45.30
2018-12-16T06:37:04.282Z,41.57
2018-12-16T06:39:31.840Z,44.37
2018-12-16T06:41:59.311Z,37.43
2018-12-16T06:44:26.889Z,37.53
2018-12-16T06:46:54.530Z,42.50
2018-12-16T06:49:22.086Z,37.70
2018-12-16T06:51:49.576Z,39.47
2018-12-16T06:54:17.203Z,41.40
2018-12-16T06:56:44.742Z,45.43
2018-12-16T06:59:12.326Z,45.07
2018-12-16T07:01:40.062Z,43.33
2018-12-16T07:04:08.729Z,46.80
2018-12-16T07:06:36.280Z,44.47
2018-12-16T07:09:05.789Z,44.97
2018-12-16T07:11:35.293Z,51.07
2018-12-16T07:14:02.997Z,43.23
2018-12-16T07:16:30.672Z,39.60
2018-12-16T07:18:58.197Z,44.57
2018-12-16T07:21:25.701Z,47.17
2018-12-16T07:23:53.462Z,47.50
2018-12-16T07:26:21.118Z,44.23
2018-12-16T07:28:48.670Z,48.10
2018-12-16T07:31:16.218Z,48.87
2018-12-16T07:33:44.603Z,48.93
2018-12-16T07:36:12.374Z,53.60
2018-12-16T07:38:40.124Z,54.13
2018-12-16T07:41:07.766Z,53.70
2018-12-16T07:43:35.417Z,48.23
2018-12-16T07:46:03.077Z,50.47
2018-12-16T07:48:31.385Z,51.07
2018-12-16T07:50:58.926Z,52.30
2018-12-16T07:53:26.619Z,49.37
2018-12-16T07:55:54.309Z,50.47
2018-12-16T07:58:21.956Z,43.30
2018-12-16T08:00:49.596Z,53.53
2018-12-16T08:03:17.180Z,50.83
2018-12-16T08:05:44.674Z,48.27
2018-12-16T08:08:12.624Z,47.07
2018-12-16T08:10:40.182Z,49.67
2018-12-16T08:13:07.732Z,51.00
2018-12-16T08:15:35.555Z,47.17
2018-12-16T08:18:03.335Z,49.77
2018-12-16T08:20:30.859Z,45.57
2018-12-16T08:22:58.408Z,45.87
2018-12-16T08:25:25.935Z,52.10
2018-12-16T08:27:53.522Z,48.37
2018-12-16T08:30:21.071Z,46.53
2018-12-16T08:32:48.592Z,50.13
2018-12-16T08:35:16.059Z,50.27
2018-12-16T08:37:43.626Z,53.37
2018-12-16T08:40:11.376Z,51.17
2018-12-16T08:42:38.895Z,49.50
2018-12-16T08:45:07.363Z,42.50
2018-12-16T08:47:34.865Z,46.60
2018-12-16T08:50:02.744Z,48.77
2018-12-16T08:52:30.412Z,50.73
2018-12-16T08:54:57.959Z,45.57
2018-12-16T08:57:25.512Z,44.70
2018-12-16T08:59:53.053Z,43.23
2018-12-16T09:02:20.553Z,44.53
2018-12-16T09:04:48.150Z,41.27
2018-12-16T09:07:16.674Z,44.00
2018-12-16T09:09:44.163Z,41.67
2018-12-16T09:12:11.868Z,45.00
2018-12-16T09:14:39.661Z,45.03
2018-12-16T09:17:07.398Z,44.37
2018-12-16T09:19:34.929Z,47.27
2018-12-16T09:22:02.719Z,44.67
2018-12-16T09:24:37.025Z,46.07
2018-12-16T09:27:00.274Z,43.60
2018-12-16T09:29:27.825Z,42.67
2018-12-16T09:31:55.438Z,36.80
2018-12-16T09:34:23.082Z,40.87
2018-12-16T09:36:50.799Z,39.70
2018-12-16T09:39:18.805Z,36.60
2018-12-16T09:41:46.438Z,31.23
2018-12-16T09:44:13.934Z,39.57
2018-12-16T09:46:41.573Z,36.27
2018-12-16T09:49:09.093Z,38.33
2018-12-16T09:51:36.782Z,35.27
2018-12-16T09:54:04.354Z,36.47
2018-12-16T09:56:31.883Z,39.13
2018-12-16T09:58:59.410Z,36.00
2018-12-16T10:01:26.926Z,34.40
2018-12-16T10:03:54.668Z,32.10
2018-12-16T10:06:22.279Z,32.17
2018-12-16T10:08:49.731Z,36.40
2018-12-16T10:11:17.337Z,37.40
2018-12-16T10:13:44.890Z,31.43
2018-12-16T10:16:12.607Z,30.47
2018-12-16T10:18:40.170Z,34.50
2018-12-16T10:21:07.774Z,30.47
2018-12-16T10:23:35.306Z,33.10
2018-12-16T10:26:02.809Z,31.70
2018-12-16T10:28:30.407Z,32.50
2018-12-16T10:30:58.121Z,30.90
2018-12-16T10:33:25.608Z,28.53
2018-12-16T10:35:53.094Z,29.23
2018-12-16T10:38:20.600Z,26.20
2018-12-16T10:40:49.203Z,23.73
2018-12-16T10:43:16.815Z,25.30
2018-12-16T10:45:44.445Z,26.27
2018-12-16T10:48:13.310Z,24.00
2018-12-16T10:50:41.206Z,27.73
2018-12-16T10:53:08.897Z,27.10
2018-12-16T10:55:36.737Z,24.43
2018-12-16T10:58:04.348Z,21.57
2018-12-16T11:00:37.842Z,24.00
2018-12-16T11:03:05.351Z,24.27
2018-12-16T11:05:33.451Z,23.37
2018-12-16T11:08:01.075Z,23.83
2018-12-16T11:10:29.061Z,23.07
2018-12-16T11:12:57.217Z,19.57
2018-12-16T11:15:25.008Z,22.90
2018-12-16T11:17:52.594Z,19.53
2018-12-16T11:20:20.100Z,31.20
2018-12-16T11:22:47.862Z,22.80
2018-12-16T11:25:16.887Z,24.30
2018-12-16T11:27:44.411Z,21.93
2018-12-16T11:30:12.423Z,25.03
2018-12-16T11:32:40.033Z,22.43
2018-12-16T11:35:07.770Z,22.00
2018-12-16T11:37:35.734Z,17.40
2018-12-16T11:40:04.227Z,20.00
2018-12-16T11:42:31.779Z,19.17
2018-12-16T11:44:59.410Z,17.63
2018-12-16T11:47:26.946Z,18.50
2018-12-16T11:49:54.665Z,15.83
2018-12-16T11:52:22.165Z,14.57
2018-12-16T11:54:49.802Z,15.33
2018-12-16T11:57:17.483Z,12.63
2018-12-16T11:59:45.081Z,12.00
2018-12-16T12:02:12.740Z,13.57
2018-12-16T12:04:43.010Z,12.97
2018-12-16T12:07:10.582Z,11.50
2018-12-16T12:09:38.071Z,12.40
2018-12-16T12:12:05.934Z,6.60
2018-12-16T12:14:33.669Z,8.97
2018-12-16T12:17:01.506Z,8.00
2018-12-16T12:19:38.278Z,6.37
2018-12-16T12:22:05.878Z,7.47
2018-12-16T12:24:33.482Z,7.20
2018-12-16T12:27:01.150Z,6.90
2018-12-16T12:29:28.659Z,4.77
2018-12-16T12:31:56.229Z,3.03
2018-12-16T12:34:23.802Z,3.90
2018-12-16T12:36:51.720Z,3.40
2018-12-16T12:39:19.282Z,5.33
2018-12-16T12:41:46.905Z,2.13
2018-12-16T12:44:14.674Z,2.37
2018-12-16T12:46:42.244Z,2.90
2018-12-16T12:49:09.783Z,3.87
2018-12-16T12:51:37.435Z,5.77
2018-12-16T12:54:06.609Z,3.63
2018-12-16T12:56:34.392Z,3.73
2018-12-16T12:59:02.037Z,3.60
2018-12-16T13:01:29.923Z,3.97
2018-12-16T13:03:57.739Z,3.17
2018-12-16T13:06:25.347Z,3.40
2018-12-16T13:08:52.920Z,3.97
2018-12-16T13:11:20.644Z,3.50
2018-12-16T13:13:48.224Z,4.17
2018-12-16T13:16:15.906Z,7.90
2018-12-16T13:18:43.404Z,3.17
2018-12-16T13:21:11.049Z,6.10
2018-12-16T13:23:38.753Z,3.27
2018-12-16T13:26:06.710Z,4.57
2018-12-16T13:28:34.279Z,3.60
2018-12-16T13:31:02.240Z,2.37
2018-12-16T13:33:29.873Z,2.47
2018-12-16T13:35:57.704Z,4.10
2018-12-16T13:38:25.449Z,3.10
2018-12-16T13:40:52.956Z,4.10
2018-12-16T13:43:20.530Z,3.60
2018-12-16T13:45:48.138Z,6.30
2018-12-16T13:48:15.669Z,6.77
2018-12-16T13:50:43.341Z,4.00
2018-12-16T13:53:11.213Z,6.93
2018-12-16T13:55:40.988Z,5.47
2018-12-16T13:58:08.481Z,4.83
2018-12-16T14:00:36.148Z,7.33
2018-12-16T14:03:03.858Z,3.50
2018-12-16T14:05:34.345Z,5.53
2018-12-16T14:08:01.942Z,7.03
2018-12-16T14:10:30.883Z,8.97
2018-12-16T14:15:32.855Z,9.33
2018-12-16T14:18:00.711Z,6.83
2018-12-16T14:20:28.269Z,6.90
2018-12-16T14:22:56.361Z,4.80
2018-12-16T14:25:24.121Z,6.07
2018-12-16T14:27:51.818Z,7.27
2018-12-16T14:30:19.601Z,9.73
2018-12-16T14:32:47.276Z,8.17
2018-12-16T14:35:15.724Z,7.50
2018-12-16T14:37:43.337Z,6.23
2018-12-16T14:40:11.376Z,11.30
2018-12-16T14:42:39.508Z,13.93
2018-12-16T14:45:08.764Z,9.43
2018-12-16T14:47:36.636Z,7.33
2018-12-16T14:50:05.539Z,7.93
2018-12-16T14:52:33.042Z,5.67
2018-12-16T14:55:00.762Z,9.27
2018-12-16T14:57:28.323Z,8.73
2018-12-16T14:59:56.102Z,10.47
2018-12-16T15:02:23.701Z,113.23
2018-12-16T15:04:51.204Z,23.50
2018-12-16T15:07:18.841Z,13.13
2018-12-16T15:09:46.566Z,10.93
2018-12-16T15:12:14.385Z,14.00
2018-12-16T15:14:42.011Z,13.07
2018-12-16T15:17:10.440Z,14.17
2018-12-16T15:19:38.100Z,7.60
2018-12-16T15:22:12.790Z,8.67
2018-12-16T15:24:40.371Z,7.23
2018-12-16T15:27:08.029Z,9.17
2018-12-16T15:29:35.673Z,7.07
2018-12-16T15:32:03.262Z,25.37
2018-12-16T15:34:30.798Z,39.77
2018-12-16T15:36:58.310Z,17.77
2018-12-16T15:39:25.953Z,16.77
2018-12-16T15:41:53.664Z,18.57
2018-12-16T15:44:21.278Z,10.80
2018-12-16T15:46:49.132Z,13.00
2018-12-16T15:49:17.025Z,12.37
2018-12-16T15:51:45.674Z,8.63
2018-12-16T15:54:13.383Z,10.40
2018-12-16T15:56:41.264Z,9.50
2018-12-16T15:59:09.210Z,11.27
2018-12-16T16:01:36.798Z,12.27
2018-12-16T16:04:04.375Z,9.63
2018-12-16T16:06:32.120Z,10.33
2018-12-16T16:08:59.693Z,11.87
2018-12-16T16:11:27.207Z,11.17
2018-12-16T16:13:54.702Z,10.77
2018-12-16T16:16:22.418Z,9.03
2018-12-16T16:18:50.292Z,9.77
2018-12-16T16:21:17.858Z,11.20
2018-12-16T16:23:45.392Z,10.40
2018-12-16T16:26:16.226Z,8.83
2018-12-16T16:28:42.683Z,9.47
2018-12-16T16:31:10.275Z,13.23
2018-12-16T16:33:38.209Z,11.00
2018-12-16T16:36:05.921Z,13.77
2018-12-16T16:38:33.742Z,16.07
2018-12-16T16:41:01.735Z,14.93
2018-12-16T16:43:30.273Z,16.67
2018-12-16T16:45:57.870Z,23.33
2018-12-16T16:48:25.693Z,20.97
2018-12-16T16:50:53.414Z,15.30
2018-12-16T16:53:21.003Z,15.93
2018-12-16T16:55:48.550Z,16.27
2018-12-16T16:58:16.107Z,16.53
2018-12-16T17:00:43.747Z,14.67
2018-12-16T17:03:11.286Z,15.40
2018-12-16T17:05:38.943Z,15.33
2018-12-16T17:08:06.526Z,17.70
2018-12-16T17:10:34.452Z,14.13
2018-12-16T17:13:02.726Z,13.40
2018-12-16T17:15:30.314Z,14.33
2018-12-16T17:17:58.270Z,14.13
2018-12-16T17:20:27.905Z,14.47
2018-12-16T17:22:55.499Z,17.80
2018-12-16T17:25:23.074Z,16.63
2018-12-16T17:28:23.325Z,18.83
2018-12-16T17:30:51.227Z,27.60
2018-12-16T17:33:18.906Z,41.63
2018-12-16T17:35:46.569Z,35.27
2018-12-16T17:38:14.283Z,32.50
2018-12-16T17:40:42.173Z,39.03
2018-12-16T17:43:09.855Z,26.77
2018-12-16T17:45:37.446Z,25.13
2018-12-16T17:48:05.095Z,26.97
2018-12-16T17:50:32.674Z,30.67
2018-12-16T17:53:00.253Z,24.53
2018-12-16T17:55:27.871Z,28.07
2018-12-16T17:57:55.709Z,23.57
2018-12-16T18:00:23.545Z,25.80
2018-12-16T18:02:51.174Z,24.60
2018-12-16T18:05:18.786Z,25.60
2018-12-16T18:07:46.394Z,25.30
2018-12-16T18:10:14.134Z,26.17
2018-12-16T18:12:41.874Z,26.77
2018-12-16T18:15:09.846Z,32.70
2018-12-16T18:17:38.106Z,31.77
2018-12-16T18:20:06.614Z,37.50
2018-12-16T18:22:34.122Z,36.03
2018-12-16T18:25:01.648Z,29.43
2018-12-16T18:27:29.366Z,36.43
2018-12-16T18:29:56.958Z,32.47
2018-12-16T18:32:24.607Z,30.70
2018-12-16T18:34:52.148Z,28.13
2018-12-16T18:37:19.770Z,26.17
2018-12-16T18:39:47.636Z,37.47
2018-12-16T18:42:15.644Z,33.90
2018-12-16T18:44:43.263Z,37.67
2018-12-16T18:47:10.997Z,38.20
2018-12-16T18:49:38.685Z,36.07
2018-12-16T18:52:06.401Z,40.13
2018-12-16T18:54:34.422Z,36.20
2018-12-16T18:57:07.160Z,36.73
2018-12-16T18:59:31.769Z,36.90
2018-12-16T19:01:59.407Z,33.73
2018-12-16T19:04:26.998Z,34.63
2018-12-16T19:06:54.849Z,33.07
2018-12-16T19:09:22.520Z,38.53
2018-12-16T19:11:50.180Z,39.87
2018-12-16T19:14:17.842Z,37.33
2018-12-16T19:16:45.436Z,37.90
2018-12-16T19:19:13.434Z,36.80
2018-12-16T19:21:41.116Z,32.73
2018-12-16T19:24:08.674Z,37.83
2018-12-16T19:26:36.325Z,30.70
2018-12-16T19:29:05.110Z,41.87
2018-12-16T19:31:32.727Z,65.30
2018-12-16T19:34:01.495Z,54.63
2018-12-16T19:36:29.339Z,60.27
2018-12-16T19:38:57.192Z,90.00
2018-12-16T19:41:24.861Z,63.57
2018-12-16T19:43:52.541Z,56.27
2018-12-16T19:46:20.229Z,50.27
2018-12-16T19:48:47.812Z,46.87
2018-12-16T19:51:15.413Z,47.67
2018-12-16T19:53:42.907Z,49.67
2018-12-16T19:56:10.555Z,46.97
2018-12-16T19:58:38.266Z,39.07
2018-12-16T20:01:05.972Z,36.97
2018-12-16T20:03:36.938Z,38.60
2018-12-16T20:06:10.406Z,31.47
2018-12-16T20:08:37.949Z,29.17
2018-12-16T20:11:05.515Z,39.30
2018-12-16T20:13:33.126Z,33.43
2018-12-16T20:16:01.620Z,42.10
2018-12-16T20:18:29.459Z,46.93
2018-12-16T20:20:57.080Z,45.03
2018-12-16T20:23:24.845Z,38.23
2018-12-16T20:25:52.368Z,44.00
2018-12-16T20:28:21.363Z,45.10
2018-12-16T20:30:48.846Z,40.87
2018-12-16T20:33:16.450Z,33.23
2018-12-16T20:35:44.327Z,37.97
2018-12-16T20:38:12.341Z,36.10
2018-12-16T20:40:39.924Z,45.73
2018-12-16T20:43:07.643Z,43.93
2018-12-16T20:45:35.160Z,38.70
2018-12-16T20:48:02.882Z,37.00
2018-12-16T20:50:30.443Z,42.20
2018-12-16T20:52:58.015Z,39.70
2018-12-16T20:55:25.616Z,39.90
2018-12-16T20:57:53.168Z,38.93
2018-12-16T21:00:21.043Z,40.77
2018-12-16T21:02:48.940Z,36.77
2018-12-16T21:05:16.555Z,45.30
2018-12-16T21:07:44.346Z,62.43
2018-12-16T21:10:12.298Z,77.63
2018-12-16T21:12:45.782Z,65.40
2018-12-16T21:15:19.216Z,56.17
2018-12-16T21:17:52.751Z,45.10
2018-12-16T21:20:20.666Z,29.50
2018-12-16T21:22:48.190Z,27.83
2018-12-16T21:25:15.842Z,34.57
2018-12-16T21:27:43.512Z,38.00
2018-12-16T21:30:11.278Z,36.13
2018-12-16T21:32:40.469Z,34.70
2018-12-16T21:35:08.302Z,38.90
2018-12-16T21:37:36.517Z,36.67
2018-12-16T21:40:04.597Z,33.27
2018-12-16T21:42:32.259Z,29.93
2018-12-16T21:44:59.878Z,33.97
2018-12-16T21:47:27.421Z,32.33
2018-12-16T21:49:54.968Z,29.20
2018-12-16T21:52:22.884Z,32.13
2018-12-16T21:54:50.451Z,29.87
2018-12-16T21:57:17.992Z,27.57
2018-12-16T21:59:45.938Z,26.63
2018-12-16T22:02:13.581Z,23.93
2018-12-16T22:04:41.242Z,25.37
2018-12-16T22:07:08.953Z,24.43
2018-12-16T22:09:36.474Z,24.67
2018-12-16T22:12:04.137Z,23.97
2018-12-16T22:14:31.693Z,26.53
2018-12-16T22:16:59.166Z,25.43
2018-12-16T22:19:26.923Z,24.27
2018-12-16T22:21:54.420Z,26.27
2018-12-16T22:24:21.990Z,27.33
2018-12-16T22:26:49.582Z,23.90
2018-12-16T22:29:17.227Z,28.60
2018-12-16T22:31:44.797Z,41.93
2018-12-16T22:34:12.434Z,40.93
2018-12-16T22:36:40.135Z,32.27
2018-12-16T22:39:07.862Z,37.47
2018-12-16T22:41:36.712Z,31.37
2018-12-16T22:44:04.629Z,40.70
2018-12-16T22:46:33.127Z,36.63
2018-12-16T22:49:00.773Z,34.13
2018-12-16T22:51:28.569Z,36.33
2018-12-16T22:53:56.206Z,35.60
2018-12-16T22:56:23.875Z,28.90
2018-12-16T22:58:54.546Z,27.67
2018-12-16T23:01:21.552Z,30.67
2018-12-16T23:03:49.183Z,30.17
2018-12-16T23:06:17.374Z,33.77
2018-12-16T23:08:45.284Z,38.80
2018-12-16T23:11:13.237Z,32.00
2018-12-16T23:13:40.905Z,29.40
2018-12-16T23:16:08.687Z,38.90
2018-12-16T23:18:36.467Z,38.63
2018-12-16T23:21:04.296Z,42.80
2018-12-16T23:23:31.886Z,32.83
2018-12-16T23:25:59.720Z,31.43
2018-12-16T23:28:27.567Z,30.60
2018-12-16T23:30:55.039Z,29.37
2018-12-16T23:33:22.602Z,35.80
2018-12-16T23:35:50.203Z,26.00
2018-12-16T23:38:18.020Z,28.37
2018-12-16T23:40:45.717Z,27.63
2018-12-16T23:43:13.202Z,31.67
2018-12-16T23:45:40.764Z,26.87
2018-12-16T23:48:08.423Z,28.93
2018-12-16T23:50:35.982Z,29.43
2018-12-16T23:53:03.910Z,30.87
2018-12-16T23:55:31.456Z,25.87
2018-12-16T23:58:20.060Z,28.27
